sensor_id;sensor_type;location;lat;lon;timestamp;pressure;altitude;pressure_sealevel;temperature;humidity
71791;BME280;59638;52.126;5.434;2023-12-20T00:01:02;101599.97;;;5.11;100.00
71791;BME280;59638;52.126;5.434;2023-12-20T00:03:29;101604.50;;;5.08;100.00
71791;BME280;59638;52.126;5.434;2023-12-20T00:06:07;101603.53;;;5.10;100.00
71791;BME280;59638;52.126;5.434;2023-12-20T00:08:34;101591.53;;;5.06;100.00
71791;BME280;59638;52.126;5.434;2023-12-20T00:11:00;101586.63;;;5.00;100.00
71791;BME280;59638;52.126;5.434;2023-12-20T00:13:26;101587.56;;;4.99;100.00
71791;BME280;59638;52.126;5.434;2023-12-20T00:15:53;101586.81;;;4.97;100.00
71791;BME280;59638;52.126;5.434;2023-12-20T00:18:19;101584.44;;;4.93;100.00
71791;BME280;59638;52.126;5.434;2023-12-20T00:20:46;101580.38;;;4.87;100.00
71791;BME280;59638;52.126;5.434;2023-12-20T00:23:12;101584.25;;;4.80;100.00
71791;BME280;59638;52.126;5.434;2023-12-20T00:25:38;101586.94;;;4.78;100.00
71791;BME280;59638;52.126;5.434;2023-12-20T00:28:06;101579.53;;;4.71;100.00
71791;BME280;59638;52.126;5.434;2023-12-20T00:30:33;101573.78;;;4.64;100.00
71791;BME280;59638;52.126;5.434;2023-12-20T00:32:59;101578.31;;;4.60;100.00
71791;BME280;59638;52.126;5.434;2023-12-20T00:35:26;101583.72;;;4.57;100.00
71791;BME280;59638;52.126;5.434;2023-12-20T00:37:53;101584.88;;;4.52;100.00
71791;BME280;59638;52.126;5.434;2023-12-20T00:40:19;101592.00;;;4.48;100.00
71791;BME280;59638;52.126;5.434;2023-12-20T00:42:47;101578.81;;;4.51;100.00
71791;BME280;59638;52.126;5.434;2023-12-20T00:45:14;101581.25;;;4.54;100.00
71791;BME280;59638;52.126;5.434;2023-12-20T00:47:40;101587.41;;;4.53;100.00
71791;BME280;59638;52.126;5.434;2023-12-20T00:50:08;101587.72;;;4.47;100.00
71791;BME280;59638;52.126;5.434;2023-12-20T00:52:35;101575.75;;;4.43;100.00
71791;BME280;59638;52.126;5.434;2023-12-20T00:55:02;101575.91;;;4.40;100.00
71791;BME280;59638;52.126;5.434;2023-12-20T00:57:30;101573.78;;;4.31;100.00
71791;BME280;59638;52.126;5.434;2023-12-20T00:59:57;101592.06;;;4.31;100.00
71791;BME280;59638;52.126;5.434;2023-12-20T01:02:24;101588.53;;;4.32;100.00
71791;BME280;59638;52.126;5.434;2023-12-20T01:04:50;101579.94;;;4.30;100.00
71791;BME280;59638;52.126;5.434;2023-12-20T01:07:16;101578.22;;;4.29;100.00
71791;BME280;59638;52.126;5.434;2023-12-20T01:09:43;101569.63;;;4.27;100.00
71791;BME280;59638;52.126;5.434;2023-12-20T01:12:10;101569.31;;;4.33;100.00
71791;BME280;59638;52.126;5.434;2023-12-20T01:14:36;101556.84;;;4.38;100.00
71791;BME280;59638;52.126;5.434;2023-12-20T01:17:03;101580.28;;;4.40;100.00
71791;BME280;59638;52.126;5.434;2023-12-20T01:19:29;101561.38;;;4.34;100.00
71791;BME280;59638;52.126;5.434;2023-12-20T01:21:56;101565.94;;;4.31;100.00
71791;BME280;59638;52.126;5.434;2023-12-20T01:24:22;101567.75;;;4.29;100.00
71791;BME280;59638;52.126;5.434;2023-12-20T01:26:49;101583.78;;;4.23;100.00
71791;BME280;59638;52.126;5.434;2023-12-20T01:29:15;101580.38;;;4.21;100.00
71791;BME280;59638;52.126;5.434;2023-12-20T01:31:42;101585.28;;;4.27;100.00
71791;BME280;59638;52.126;5.434;2023-12-20T01:34:08;101578.22;;;4.29;100.00
71791;BME280;59638;52.126;5.434;2023-12-20T01:36:35;101583.13;;;4.35;100.00
71791;BME280;59638;52.126;5.434;2023-12-20T01:39:01;101588.88;;;4.42;100.00
71791;BME280;59638;52.126;5.434;2023-12-20T01:41:31;101581.03;;;4.42;100.00
71791;BME280;59638;52.126;5.434;2023-12-20T01:43:57;101585.00;;;4.49;100.00
71791;BME280;59638;52.126;5.434;2023-12-20T01:46:24;101579.56;;;4.53;100.00
71791;BME280;59638;52.126;5.434;2023-12-20T01:48:51;101568.03;;;4.57;100.00
71791;BME280;59638;52.126;5.434;2023-12-20T01:51:18;101571.72;;;4.53;100.00
71791;BME280;59638;52.126;5.434;2023-12-20T01:53:46;101571.56;;;4.56;100.00
71791;BME280;59638;52.126;5.434;2023-12-20T01:56:13;101572.41;;;4.57;100.00
71791;BME280;59638;52.126;5.434;2023-12-20T01:58:43;101580.00;;;4.61;100.00
71791;BME280;59638;52.126;5.434;2023-12-20T02:01:11;101584.13;;;4.66;100.00
71791;BME280;59638;52.126;5.434;2023-12-20T02:03:38;101569.38;;;4.64;100.00
71791;BME280;59638;52.126;5.434;2023-12-20T02:06:05;101569.53;;;4.61;100.00
71791;BME280;59638;52.126;5.434;2023-12-20T02:08:31;101577.03;;;4.68;100.00
71791;BME280;59638;52.126;5.434;2023-12-20T02:10:58;101572.94;;;4.63;100.00
71791;BME280;59638;52.126;5.434;2023-12-20T02:13:25;101567.69;;;4.63;100.00
71791;BME280;59638;52.126;5.434;2023-12-20T02:15:56;101571.91;;;4.66;100.00
71791;BME280;59638;52.126;5.434;2023-12-20T02:18:23;101569.38;;;4.64;100.00
71791;BME280;59638;52.126;5.434;2023-12-20T02:20:50;101567.53;;;4.67;100.00
71791;BME280;59638;52.126;5.434;2023-12-20T02:23:16;101560.94;;;4.75;100.00
71791;BME280;59638;52.126;5.434;2023-12-20T02:25:43;101564.00;;;4.83;100.00
71791;BME280;59638;52.126;5.434;2023-12-20T02:28:10;101568.97;;;4.88;100.00
71791;BME280;59638;52.126;5.434;2023-12-20T02:30:36;101564.53;;;4.90;100.00
71791;BME280;59638;52.126;5.434;2023-12-20T02:33:06;101560.78;;;4.94;100.00
71791;BME280;59638;52.126;5.434;2023-12-20T02:35:34;101555.56;;;4.94;100.00
71791;BME280;59638;52.126;5.434;2023-12-20T02:38:00;101552.00;;;4.95;100.00
71791;BME280;59638;52.126;5.434;2023-12-20T02:40:26;101554.56;;;4.97;100.00
71791;BME280;59638;52.126;5.434;2023-12-20T02:42:53;101556.25;;;4.98;100.00
71791;BME280;59638;52.126;5.434;2023-12-20T02:45:19;101553.53;;;4.99;100.00
71791;BME280;59638;52.126;5.434;2023-12-20T02:47:46;101543.91;;;5.00;100.00
71791;BME280;59638;52.126;5.434;2023-12-20T02:50:13;101549.00;;;5.03;100.00
71791;BME280;59638;52.126;5.434;2023-12-20T02:52:39;101539.38;;;5.03;100.00
71791;BME280;59638;52.126;5.434;2023-12-20T02:55:06;101539.03;;;5.09;100.00
71791;BME280;59638;52.126;5.434;2023-12-20T02:57:32;101543.16;;;5.13;100.00
71791;BME280;59638;52.126;5.434;2023-12-20T02:59:59;101533.03;;;5.07;100.00
71791;BME280;59638;52.126;5.434;2023-12-20T03:02:26;101526.44;;;5.00;100.00
71791;BME280;59638;52.126;5.434;2023-12-20T03:04:52;101528.06;;;5.03;100.00
71791;BME280;59638;52.126;5.434;2023-12-20T03:07:19;101525.34;;;5.04;100.00
71791;BME280;59638;52.126;5.434;2023-12-20T03:09:45;101531.25;;;5.08;100.00
71791;BME280;59638;52.126;5.434;2023-12-20T03:12:32;101536.56;;;5.06;100.00
71791;BME280;59638;52.126;5.434;2023-12-20T03:14:58;101522.84;;;5.03;100.00
71791;BME280;59638;52.126;5.434;2023-12-20T03:17:25;101529.56;;;5.07;100.00
71791;BME280;59638;52.126;5.434;2023-12-20T03:19:51;101523.56;;;5.21;100.00
71791;BME280;59638;52.126;5.434;2023-12-20T03:22:18;101528.38;;;5.28;100.00
71791;BME280;59638;52.126;5.434;2023-12-20T03:24:44;101518.91;;;5.26;100.00
71791;BME280;59638;52.126;5.434;2023-12-20T03:27:11;101508.44;;;5.26;100.00
71791;BME280;59638;52.126;5.434;2023-12-20T03:29:37;101508.28;;;5.29;100.00
71791;BME280;59638;52.126;5.434;2023-12-20T03:32:04;101507.34;;;5.30;100.00
71791;BME280;59638;52.126;5.434;2023-12-20T03:34:30;101503.13;;;5.27;100.00
71791;BME280;59638;52.126;5.434;2023-12-20T03:36:57;101513.53;;;5.29;100.00
71791;BME280;59638;52.126;5.434;2023-12-20T03:39:24;101511.75;;;5.29;100.00
71791;BME280;59638;52.126;5.434;2023-12-20T03:41:50;101513.06;;;5.36;100.00
71791;BME280;59638;52.126;5.434;2023-12-20T03:44:17;101518.38;;;5.51;100.00
71791;BME280;59638;52.126;5.434;2023-12-20T03:46:43;101510.06;;;5.58;100.00
71791;BME280;59638;52.126;5.434;2023-12-20T03:49:11;101513.34;;;5.62;100.00
71791;BME280;59638;52.126;5.434;2023-12-20T03:51:38;101518.25;;;5.68;100.00
71791;BME280;59638;52.126;5.434;2023-12-20T03:54:04;101519.81;;;5.70;100.00
71791;BME280;59638;52.126;5.434;2023-12-20T03:56:31;101521.28;;;5.60;100.00
71791;BME280;59638;52.126;5.434;2023-12-20T03:58:57;101515.66;;;5.52;100.00
71791;BME280;59638;52.126;5.434;2023-12-20T04:01:24;101512.28;;;5.50;100.00
71791;BME280;59638;52.126;5.434;2023-12-20T04:03:50;101512.09;;;5.53;100.00
71791;BME280;59638;52.126;5.434;2023-12-20T04:06:18;101512.09;;;5.53;100.00
71791;BME280;59638;52.126;5.434;2023-12-20T04:08:44;101513.41;;;5.60;100.00
71791;BME280;59638;52.126;5.434;2023-12-20T04:11:11;101515.69;;;5.66;100.00
71791;BME280;59638;52.126;5.434;2023-12-20T04:13:38;101514.38;;;5.73;100.00
71791;BME280;59638;52.126;5.434;2023-12-20T04:16:04;101508.16;;;5.76;100.00
71791;BME280;59638;52.126;5.434;2023-12-20T04:18:31;101505.22;;;5.81;100.00
71791;BME280;59638;52.126;5.434;2023-12-20T04:20:58;101499.16;;;5.80;100.00
71791;BME280;59638;52.126;5.434;2023-12-20T04:23:24;101498.31;;;5.80;100.00
71791;BME280;59638;52.126;5.434;2023-12-20T04:25:51;101493.91;;;5.80;100.00
71791;BME280;59638;52.126;5.434;2023-12-20T04:28:17;101494.59;;;5.84;100.00
71791;BME280;59638;52.126;5.434;2023-12-20T04:30:44;101502.09;;;5.90;100.00
71791;BME280;59638;52.126;5.434;2023-12-20T04:33:10;101511.47;;;5.94;100.00
71791;BME280;59638;52.126;5.434;2023-12-20T04:35:37;101509.41;;;5.99;100.00
71791;BME280;59638;52.126;5.434;2023-12-20T04:38:03;101512.63;;;6.04;100.00
71791;BME280;59638;52.126;5.434;2023-12-20T04:40:30;101512.41;;;6.07;100.00
71791;BME280;59638;52.126;5.434;2023-12-20T04:42:56;101507.16;;;6.07;100.00
71791;BME280;59638;52.126;5.434;2023-12-20T04:45:23;101498.41;;;6.08;100.00
71791;BME280;59638;52.126;5.434;2023-12-20T04:47:51;101501.03;;;6.08;100.00
71791;BME280;59638;52.126;5.434;2023-12-20T04:50:18;101504.28;;;6.12;100.00
71791;BME280;59638;52.126;5.434;2023-12-20T04:52:46;101499.34;;;6.21;100.00
71791;BME280;59638;52.126;5.434;2023-12-20T04:55:12;101497.25;;;6.26;100.00
71791;BME280;59638;52.126;5.434;2023-12-20T04:57:39;101494.38;;;6.31;100.00
71791;BME280;59638;52.126;5.434;2023-12-20T05:00:06;101484.91;;;6.29;100.00
71791;BME280;59638;52.126;5.434;2023-12-20T05:02:35;101477.59;;;6.34;100.00
71791;BME280;59638;52.126;5.434;2023-12-20T05:05:02;101487.16;;;6.35;100.00
71791;BME280;59638;52.126;5.434;2023-12-20T05:07:28;101478.72;;;6.30;100.00
71791;BME280;59638;52.126;5.434;2023-12-20T05:09:55;101484.72;;;6.32;100.00
71791;BME280;59638;52.126;5.434;2023-12-20T05:12:22;101494.19;;;6.34;100.00
71791;BME280;59638;52.126;5.434;2023-12-20T05:14:48;101498.19;;;6.40;100.00
71791;BME280;59638;52.126;5.434;2023-12-20T05:17:15;101485.00;;;6.41;100.00
71791;BME280;59638;52.126;5.434;2023-12-20T05:19:41;101484.91;;;6.43;100.00
71791;BME280;59638;52.126;5.434;2023-12-20T05:22:08;101488.25;;;6.45;100.00
71791;BME280;59638;52.126;5.434;2023-12-20T05:24:34;101491.09;;;6.42;100.00
71791;BME280;59638;52.126;5.434;2023-12-20T05:27:01;101482.06;;;6.46;100.00
71791;BME280;59638;52.126;5.434;2023-12-20T05:29:27;101494.25;;;6.47;100.00
71791;BME280;59638;52.126;5.434;2023-12-20T05:31:53;101492.56;;;6.46;100.00
71791;BME280;59638;52.126;5.434;2023-12-20T05:34:20;101496.88;;;6.47;100.00
71791;BME280;59638;52.126;5.434;2023-12-20T05:36:47;101491.44;;;6.50;100.00
71791;BME280;59638;52.126;5.434;2023-12-20T05:39:13;101502.50;;;6.55;100.00
71791;BME280;59638;52.126;5.434;2023-12-20T05:41:40;101510.38;;;6.55;100.00
71791;BME280;59638;52.126;5.434;2023-12-20T05:44:06;101495.56;;;6.54;100.00
71791;BME280;59638;52.126;5.434;2023-12-20T05:46:32;101490.13;;;6.57;100.00
71791;BME280;59638;52.126;5.434;2023-12-20T05:48:59;101495.38;;;6.57;100.00
71791;BME280;59638;52.126;5.434;2023-12-20T05:51:25;101485.94;;;6.54;100.00
71791;BME280;59638;52.126;5.434;2023-12-20T05:53:52;101500.81;;;6.54;100.00
71791;BME280;59638;52.126;5.434;2023-12-20T05:56:19;101495.38;;;6.57;100.00
71791;BME280;59638;52.126;5.434;2023-12-20T05:58:45;101498.28;;;6.52;100.00
71791;BME280;59638;52.126;5.434;2023-12-20T06:01:14;101501.72;;;6.53;100.00
71791;BME280;59638;52.126;5.434;2023-12-20T06:03:41;101495.56;;;6.54;100.00
71791;BME280;59638;52.126;5.434;2023-12-20T06:06:08;101493.69;;;6.56;100.00
71791;BME280;59638;52.126;5.434;2023-12-20T06:08:42;101488.44;;;6.56;100.00
71791;BME280;59638;52.126;5.434;2023-12-20T06:11:10;101492.84;;;6.56;100.00
71791;BME280;59638;52.126;5.434;2023-12-20T06:13:36;101496.31;;;6.56;100.00
71791;BME280;59638;52.126;5.434;2023-12-20T06:16:05;101495.16;;;6.60;100.00
71791;BME280;59638;52.126;5.434;2023-12-20T06:18:32;101491.63;;;6.61;100.00
71791;BME280;59638;52.126;5.434;2023-12-20T06:20:59;101489.75;;;6.63;100.00
71791;BME280;59638;52.126;5.434;2023-12-20T06:23:25;101480.94;;;6.64;100.00
71791;BME280;59638;52.126;5.434;2023-12-20T06:25:53;101472.88;;;6.67;100.00
71791;BME280;59638;52.126;5.434;2023-12-20T06:28:20;101480.53;;;6.70;100.00
71791;BME280;59638;52.126;5.434;2023-12-20T06:30:46;101481.22;;;6.74;100.00
71791;BME280;59638;52.126;5.434;2023-12-20T06:33:15;101482.06;;;6.74;100.00
71791;BME280;59638;52.126;5.434;2023-12-20T06:35:42;101477.66;;;6.75;100.00
71791;BME280;59638;52.126;5.434;2023-12-20T06:38:09;101481.09;;;6.75;100.00
71791;BME280;59638;52.126;5.434;2023-12-20T06:40:35;101479.09;;;6.79;100.00
71791;BME280;59638;52.126;5.434;2023-12-20T06:43:02;101477.31;;;6.79;100.00
71791;BME280;59638;52.126;5.434;2023-12-20T06:45:41;101473.69;;;6.82;100.00
71791;BME280;59638;52.126;5.434;2023-12-20T06:48:08;101475.38;;;6.83;100.00
71791;BME280;59638;52.126;5.434;2023-12-20T06:50:36;101465.72;;;6.84;100.00
71791;BME280;59638;52.126;5.434;2023-12-20T06:53:06;101455.00;;;6.87;100.00
71791;BME280;59638;52.126;5.434;2023-12-20T06:55:35;101458.38;;;6.89;100.00
71791;BME280;59638;52.126;5.434;2023-12-20T06:58:02;101456.72;;;6.88;100.00
71791;BME280;59638;52.126;5.434;2023-12-20T07:00:28;101455.88;;;6.87;100.00
71791;BME280;59638;52.126;5.434;2023-12-20T07:02:56;101468.13;;;6.87;100.00
71791;BME280;59638;52.126;5.434;2023-12-20T07:05:22;101453.13;;;6.89;100.00
71791;BME280;59638;52.126;5.434;2023-12-20T07:07:49;101460.91;;;6.90;100.00
71791;BME280;59638;52.126;5.434;2023-12-20T07:10:16;101461.00;;;6.89;100.00
71791;BME280;59638;52.126;5.434;2023-12-20T07:12:42;101472.25;;;6.91;100.00
71791;BME280;59638;52.126;5.434;2023-12-20T07:15:10;101463.25;;;6.95;100.00
71791;BME280;59638;52.126;5.434;2023-12-20T07:17:37;101467.44;;;6.97;100.00
71791;BME280;59638;52.126;5.434;2023-12-20T07:20:04;101461.34;;;6.97;100.00
71791;BME280;59638;52.126;5.434;2023-12-20T07:22:33;101452.53;;;6.98;100.00
71791;BME280;59638;52.126;5.434;2023-12-20T07:25:00;101452.75;;;6.95;100.00
71791;BME280;59638;52.126;5.434;2023-12-20T07:27:26;101456.31;;;6.94;100.00
71791;BME280;59638;52.126;5.434;2023-12-20T07:29:53;101448.34;;;6.95;100.00
71791;BME280;59638;52.126;5.434;2023-12-20T07:32:19;101453.38;;;6.98;100.00
71791;BME280;59638;52.126;5.434;2023-12-20T07:34:46;101452.34;;;7.01;100.00
71791;BME280;59638;52.126;5.434;2023-12-20T07:37:13;101442.69;;;7.01;100.00
71791;BME280;59638;52.126;5.434;2023-12-20T07:39:40;101436.50;;;7.02;100.00
71791;BME280;59638;52.126;5.434;2023-12-20T07:42:07;101429.25;;;7.06;100.00
71791;BME280;59638;52.126;5.434;2023-12-20T07:44:34;101444.81;;;7.09;100.00
71791;BME280;59638;52.126;5.434;2023-12-20T07:47:02;101455.94;;;7.13;100.00
71791;BME280;59638;52.126;5.434;2023-12-20T07:49:29;101457.53;;;7.15;100.00
71791;BME280;59638;52.126;5.434;2023-12-20T07:51:56;101456.59;;;7.16;100.00
71791;BME280;59638;52.126;5.434;2023-12-20T07:54:22;101458.28;;;7.17;100.00
71791;BME280;59638;52.126;5.434;2023-12-20T07:56:49;101464.25;;;7.19;100.00
71791;BME280;59638;52.126;5.434;2023-12-20T07:59:15;101467.09;;;7.16;100.00
71791;BME280;59638;52.126;5.434;2023-12-20T08:01:55;101469.72;;;7.16;100.00
71791;BME280;59638;52.126;5.434;2023-12-20T08:04:22;101472.34;;;7.16;100.00
71791;BME280;59638;52.126;5.434;2023-12-20T08:06:48;101474.03;;;7.17;100.00
71791;BME280;59638;52.126;5.434;2023-12-20T08:09:15;101475.69;;;7.18;100.00
71791;BME280;59638;52.126;5.434;2023-12-20T08:11:46;101488.09;;;7.16;100.00
71791;BME280;59638;52.126;5.434;2023-12-20T08:14:12;101487.88;;;7.19;100.00
71791;BME280;59638;52.126;5.434;2023-12-20T08:16:42;101486.84;;;7.22;100.00
71791;BME280;59638;52.126;5.434;2023-12-20T08:19:09;101491.06;;;7.24;100.00
71791;BME280;59638;52.126;5.434;2023-12-20T08:21:35;101479.59;;;7.25;100.00
71791;BME280;59638;52.126;5.434;2023-12-20T08:24:04;101469.88;;;7.27;100.00
71791;BME280;59638;52.126;5.434;2023-12-20T08:26:32;101474.16;;;7.28;100.00
71791;BME280;59638;52.126;5.434;2023-12-20T08:28:59;101479.31;;;7.30;100.00
71791;BME280;59638;52.126;5.434;2023-12-20T08:31:27;101465.22;;;7.31;100.00
71791;BME280;59638;52.126;5.434;2023-12-20T08:33:54;101463.25;;;7.34;100.00
71791;BME280;59638;52.126;5.434;2023-12-20T08:36:21;101462.22;;;7.37;100.00
71791;BME280;59638;52.126;5.434;2023-12-20T08:38:49;101468.28;;;7.38;100.00
71791;BME280;59638;52.126;5.434;2023-12-20T08:41:19;101460.22;;;7.41;100.00
71791;BME280;59638;52.126;5.434;2023-12-20T08:43:46;101462.84;;;7.41;100.00
71791;BME280;59638;52.126;5.434;2023-12-20T08:46:14;101466.31;;;7.41;100.00
71791;BME280;59638;52.126;5.434;2023-12-20T08:48:41;101463.59;;;7.43;100.00
71791;BME280;59638;52.126;5.434;2023-12-20T08:51:10;101466.31;;;7.41;100.00
71791;BME280;59638;52.126;5.434;2023-12-20T08:53:36;101455.94;;;7.40;100.00
71791;BME280;59638;52.126;5.434;2023-12-20T08:56:03;101453.50;;;7.36;100.00
71791;BME280;59638;52.126;5.434;2023-12-20T08:58:29;101460.81;;;7.31;100.00
71791;BME280;59638;52.126;5.434;2023-12-20T09:00:56;101457.25;;;7.32;100.00
71791;BME280;59638;52.126;5.434;2023-12-20T09:03:24;101469.75;;;7.29;100.00
71791;BME280;59638;52.126;5.434;2023-12-20T09:05:50;101450.94;;;7.22;100.00
71791;BME280;59638;52.126;5.434;2023-12-20T09:08:17;101470.44;;;7.18;100.00
71791;BME280;59638;52.126;5.434;2023-12-20T09:10:43;101461.84;;;7.16;100.00
71791;BME280;59638;52.126;5.434;2023-12-20T09:13:10;101466.25;;;7.16;100.00
71791;BME280;59638;52.126;5.434;2023-12-20T09:15:37;101463.72;;;7.14;100.00
71791;BME280;59638;52.126;5.434;2023-12-20T09:18:04;101462.25;;;7.10;100.00
71791;BME280;59638;52.126;5.434;2023-12-20T09:20:31;101455.31;;;7.09;100.00
71791;BME280;59638;52.126;5.434;2023-12-20T09:22:57;101454.19;;;7.13;100.00
71791;BME280;59638;52.126;5.434;2023-12-20T09:25:24;101453.03;;;7.17;100.00
71791;BME280;59638;52.126;5.434;2023-12-20T09:27:52;101452.84;;;7.20;100.00
71791;BME280;59638;52.126;5.434;2023-12-20T09:30:19;101454.13;;;7.27;100.00
71791;BME280;59638;52.126;5.434;2023-12-20T09:32:53;101458.75;;;7.36;100.00
71791;BME280;59638;52.126;5.434;2023-12-20T09:35:20;101460.00;;;7.44;100.00
71791;BME280;59638;52.126;5.434;2023-12-20T09:37:48;101452.03;;;7.45;100.00
71791;BME280;59638;52.126;5.434;2023-12-20T09:40:18;101449.22;;;7.48;100.00
71791;BME280;59638;52.126;5.434;2023-12-20T09:42:53;101459.19;;;7.56;100.00
71791;BME280;59638;52.126;5.434;2023-12-20T09:45:22;101466.66;;;7.62;100.00
71791;BME280;59638;52.126;5.434;2023-12-20T09:47:50;101463.81;;;7.65;100.00
71791;BME280;59638;52.126;5.434;2023-12-20T09:50:18;101469.84;;;7.67;100.00
71791;BME280;59638;52.126;5.434;2023-12-20T09:52:53;101468.38;;;7.76;100.00
71791;BME280;59638;52.126;5.434;2023-12-20T09:55:20;101465.50;;;7.79;100.00
71791;BME280;59638;52.126;5.434;2023-12-20T09:57:48;101466.28;;;7.81;100.00
71791;BME280;59638;52.126;5.434;2023-12-20T10:00:16;101456.91;;;7.89;100.00
71791;BME280;59638;52.126;5.434;2023-12-20T10:03:00;101452.91;;;7.97;100.00
71791;BME280;59638;52.126;5.434;2023-12-20T10:05:33;101463.22;;;8.00;100.00
71791;BME280;59638;52.126;5.434;2023-12-20T10:08:01;101475.72;;;8.09;100.00
71791;BME280;59638;52.126;5.434;2023-12-20T10:10:28;101469.50;;;8.10;100.00
71791;BME280;59638;52.126;5.434;2023-12-20T10:13:11;101474.34;;;8.16;100.00
71791;BME280;59638;52.126;5.434;2023-12-20T10:15:38;101474.16;;;8.19;100.00
71791;BME280;59638;52.126;5.434;2023-12-20T10:18:05;101478.66;;;8.17;100.00
71791;BME280;59638;52.126;5.434;2023-12-20T10:20:32;101481.28;;;8.17;100.00
71791;BME280;59638;52.126;5.434;2023-12-20T10:22:59;101482.25;;;8.16;100.00
71791;BME280;59638;52.126;5.434;2023-12-20T10:25:27;101468.91;;;8.19;100.00
71791;BME280;59638;52.126;5.434;2023-12-20T10:28:14;101469.94;;;8.16;100.00
71791;BME280;59638;52.126;5.434;2023-12-20T10:30:41;101462.69;;;8.20;100.00
71791;BME280;59638;52.126;5.434;2023-12-20T10:33:09;101459.81;;;8.23;100.00
71791;BME280;59638;52.126;5.434;2023-12-20T10:35:38;101452.56;;;8.27;100.00
71791;BME280;59638;52.126;5.434;2023-12-20T10:38:10;101457.41;;;8.33;100.00
71791;BME280;59638;52.126;5.434;2023-12-20T10:40:37;101452.88;;;8.35;100.00
71791;BME280;59638;52.126;5.434;2023-12-20T10:43:05;101452.88;;;8.35;100.00
71791;BME280;59638;52.126;5.434;2023-12-20T10:45:33;101456.56;;;8.32;100.00
71791;BME280;59638;52.126;5.434;2023-12-20T10:48:01;101446.56;;;8.37;100.00
71791;BME280;59638;52.126;5.434;2023-12-20T10:50:29;101444.03;;;8.49;100.00
71791;BME280;59638;52.126;5.434;2023-12-20T10:52:57;101452.44;;;8.54;100.00
71791;BME280;59638;52.126;5.434;2023-12-20T10:55:24;101437.94;;;8.48;100.00
71791;BME280;59638;52.126;5.434;2023-12-20T10:57:52;101440.31;;;8.51;100.00
71791;BME280;59638;52.126;5.434;2023-12-20T11:00:20;101435.97;;;8.63;100.00
71791;BME280;59638;52.126;5.434;2023-12-20T11:02:49;101444.56;;;8.78;100.00
71791;BME280;59638;52.126;5.434;2023-12-20T11:08:38;101425.53;;;8.74;100.00
71791;BME280;59638;52.126;5.434;2023-12-20T11:11:23;101424.13;;;8.81;100.00
71791;BME280;59638;52.126;5.434;2023-12-20T11:14:03;101427.91;;;9.25;100.00
71791;BME280;59638;52.126;5.434;2023-12-20T11:16:32;101427.53;;;9.87;100.00
71791;BME280;59638;52.126;5.434;2023-12-20T11:19:13;101427.94;;;10.27;100.00
71791;BME280;59638;52.126;5.434;2023-12-20T11:21:41;101404.78;;;9.97;100.00
71791;BME280;59638;52.126;5.434;2023-12-20T11:24:09;101416.50;;;9.60;100.00
71791;BME280;59638;52.126;5.434;2023-12-20T11:26:36;101412.47;;;9.32;100.00
71791;BME280;59638;52.126;5.434;2023-12-20T11:32:00;101409.09;;;8.94;100.00
71791;BME280;59638;52.126;5.434;2023-12-20T11:34:28;101402.47;;;9.13;100.00
71791;BME280;59638;52.126;5.434;2023-12-20T11:36:59;101405.41;;;9.43;100.00
71791;BME280;59638;52.126;5.434;2023-12-20T11:39:27;101410.00;;;9.52;100.00
71791;BME280;59638;52.126;5.434;2023-12-20T11:41:55;101400.44;;;9.63;100.00
71791;BME280;59638;52.126;5.434;2023-12-20T11:44:25;101402.09;;;9.52;100.00
71791;BME280;59638;52.126;5.434;2023-12-20T11:46:52;101395.59;;;9.34;100.00
71791;BME280;59638;52.126;5.434;2023-12-20T11:49:23;101383.84;;;9.27;100.00
71791;BME280;59638;52.126;5.434;2023-12-20T11:51:49;101381.41;;;9.24;100.00
71791;BME280;59638;52.126;5.434;2023-12-20T11:54:16;101385.75;;;9.25;100.00
71791;BME280;59638;52.126;5.434;2023-12-20T11:56:43;101377.47;;;9.30;100.00
71791;BME280;59638;52.126;5.434;2023-12-20T11:59:09;101375.47;;;9.33;100.00
71791;BME280;59638;52.126;5.434;2023-12-20T12:01:50;101372.38;;;9.39;100.00
71791;BME280;59638;52.126;5.434;2023-12-20T12:04:18;101375.75;;;9.52;100.00
71791;BME280;59638;52.126;5.434;2023-12-20T12:06:45;101376.81;;;9.39;100.00
71791;BME280;59638;52.126;5.434;2023-12-20T12:09:12;101382.38;;;9.23;100.00
71791;BME280;59638;52.126;5.434;2023-12-20T12:11:39;101373.50;;;9.13;100.00
71791;BME280;59638;52.126;5.434;2023-12-20T12:14:06;101383.28;;;9.11;100.00
71791;BME280;59638;52.126;5.434;2023-12-20T12:16:33;101385.22;;;9.09;100.00
71791;BME280;59638;52.126;5.434;2023-12-20T12:19:00;101391.44;;;9.08;100.00
71791;BME280;59638;52.126;5.434;2023-12-20T12:21:27;101393.00;;;9.10;100.00
71791;BME280;59638;52.126;5.434;2023-12-20T12:24:09;101385.22;;;9.09;100.00
71791;BME280;59638;52.126;5.434;2023-12-20T12:26:36;101383.28;;;9.11;100.00
71791;BME280;59638;52.126;5.434;2023-12-20T12:29:02;101380.00;;;9.20;100.00
71791;BME280;59638;52.126;5.434;2023-12-20T12:31:30;101371.63;;;9.26;100.00
71791;BME280;59638;52.126;5.434;2023-12-20T12:33:56;101367.41;;;9.23;100.00
71791;BME280;59638;52.126;5.434;2023-12-20T12:36:23;101365.47;;;9.14;100.00
71791;BME280;59638;52.126;5.434;2023-12-20T12:38:50;101367.50;;;9.11;100.00
71791;BME280;59638;52.126;5.434;2023-12-20T12:41:17;101365.22;;;9.06;100.00
71791;BME280;59638;52.126;5.434;2023-12-20T12:43:43;101355.75;;;9.04;100.00
71791;BME280;59638;52.126;5.434;2023-12-20T12:46:10;101346.91;;;9.05;100.00
71791;BME280;59638;52.126;5.434;2023-12-20T12:48:36;101334.94;;;9.01;100.00
71791;BME280;59638;52.126;5.434;2023-12-20T12:51:03;101335.13;;;8.97;100.00
71791;BME280;59638;52.126;5.434;2023-12-20T12:53:30;101343.16;;;8.96;100.00
71791;BME280;59638;52.126;5.434;2023-12-20T12:55:56;101341.47;;;8.95;100.00
71791;BME280;59638;52.126;5.434;2023-12-20T12:58:23;101338.84;;;8.95;100.00